sensor_id;sensor_type;location;lat;lon;timestamp;pressure;altitude;pressure_sealevel;temperature;humidity
12213;BME280;6169;44.158;22.788;2022-10-13T00:03:31;101868.06;;;12.46;100.00
12213;BME280;6169;44.158;22.788;2022-10-13T00:08:35;101866.97;;;12.60;100.00
12213;BME280;6169;44.158;22.788;2022-10-13T00:13:37;101861.13;;;12.50;100.00
12213;BME280;6169;44.158;22.788;2022-10-13T00:18:40;101853.59;;;12.52;98.34
12213;BME280;6169;44.158;22.788;2022-10-13T00:23:44;101856.88;;;12.74;96.92
12213;BME280;6169;44.158;22.788;2022-10-13T00:28:47;101804.81;;;12.50;96.10
12213;BME280;6169;44.158;22.788;2022-10-13T00:33:49;101847.72;;;12.55;95.64
12213;BME280;6169;44.158;22.788;2022-10-13T00:38:53;101840.94;;;12.12;97.96
12213;BME280;6169;44.158;22.788;2022-10-13T00:43:58;101833.91;;;11.72;100.00
12213;BME280;6169;44.158;22.788;2022-10-13T00:49:04;101825.69;;;11.98;97.38
12213;BME280;6169;44.158;22.788;2022-10-13T00:54:10;101818.34;;;11.99;95.21
12213;BME280;6169;44.158;22.788;2022-10-13T00:59:19;101817.78;;;11.83;96.70
12213;BME280;6169;44.158;22.788;2022-10-13T01:04:25;101813.94;;;12.11;93.58
12213;BME280;6169;44.158;22.788;2022-10-13T01:09:30;101807.94;;;11.89;94.65
12213;BME280;6169;44.158;22.788;2022-10-13T01:14:45;101760.88;;;11.55;95.10
12213;BME280;6169;44.158;22.788;2022-10-13T01:20:16;101806.03;;;11.56;97.00
12213;BME280;6169;44.158;22.788;2022-10-13T01:25:36;101809.19;;;11.46;96.62
12213;BME280;6169;44.158;22.788;2022-10-13T01:30:50;101806.25;;;11.61;95.88
12213;BME280;6169;44.158;22.788;2022-10-13T01:36:04;101803.72;;;11.13;98.01
12213;BME280;6169;44.158;22.788;2022-10-13T01:41:12;101797.19;;;10.94;98.97
12213;BME280;6169;44.158;22.788;2022-10-13T01:46:21;101795.56;;;11.07;99.27
12213;BME280;6169;44.158;22.788;2022-10-13T01:51:26;101795.78;;;10.98;100.00
12213;BME280;6169;44.158;22.788;2022-10-13T01:56:30;101785.56;;;11.40;96.44
12213;BME280;6169;44.158;22.788;2022-10-13T02:01:44;101785.56;;;11.27;98.02
12213;BME280;6169;44.158;22.788;2022-10-13T02:06:51;101788.44;;;11.06;97.42
12213;BME280;6169;44.158;22.788;2022-10-13T02:11:58;101781.88;;;10.67;99.88
12213;BME280;6169;44.158;22.788;2022-10-13T02:17:04;101793.88;;;10.92;97.06
12213;BME280;6169;44.158;22.788;2022-10-13T02:22:07;101791.59;;;10.96;97.80
12213;BME280;6169;44.158;22.788;2022-10-13T02:27:12;101793.91;;;11.19;100.00
12213;BME280;6169;44.158;22.788;2022-10-13T02:32:16;101796.81;;;11.17;100.00
12213;BME280;6169;44.158;22.788;2022-10-13T02:37:18;101792.59;;;10.88;100.00
12213;BME280;6169;44.158;22.788;2022-10-13T02:42:21;101791.59;;;11.22;99.10
12213;BME280;6169;44.158;22.788;2022-10-13T02:47:24;101788.06;;;11.15;98.24
12213;BME280;6169;44.158;22.788;2022-10-13T02:52:26;101784.25;;;10.96;97.48
12213;BME280;6169;44.158;22.788;2022-10-13T02:57:28;101780.50;;;10.84;96.14
12213;BME280;6169;44.158;22.788;2022-10-13T03:02:32;101782.16;;;10.85;94.71
12213;BME280;6169;44.158;22.788;2022-10-13T03:07:35;101784.63;;;10.80;95.40
12213;BME280;6169;44.158;22.788;2022-10-13T03:12:37;101787.63;;;10.44;95.64
12213;BME280;6169;44.158;22.788;2022-10-13T03:17:40;101788.53;;;10.57;96.02
12213;BME280;6169;44.158;22.788;2022-10-13T03:22:43;101793.78;;;10.24;98.78
12213;BME280;6169;44.158;22.788;2022-10-13T03:27:45;101790.19;;;10.10;98.30
12213;BME280;6169;44.158;22.788;2022-10-13T03:32:48;101791.72;;;10.20;99.43
12213;BME280;6169;44.158;22.788;2022-10-13T03:37:51;101786.38;;;10.05;98.29
12213;BME280;6169;44.158;22.788;2022-10-13T03:42:53;101791.78;;;9.98;98.02
12213;BME280;6169;44.158;22.788;2022-10-13T03:47:57;101798.69;;;10.42;99.07
12213;BME280;6169;44.158;22.788;2022-10-13T03:52:59;101795.28;;;10.27;98.49
12213;BME280;6169;44.158;22.788;2022-10-13T03:58:01;101799.44;;;10.23;98.18
12213;BME280;6169;44.158;22.788;2022-10-13T04:03:05;101762.31;;;9.88;97.03
12213;BME280;6169;44.158;22.788;2022-10-13T04:08:07;101801.25;;;10.09;97.45
12213;BME280;6169;44.158;22.788;2022-10-13T04:13:09;101807.31;;;10.11;97.05
12213;BME280;6169;44.158;22.788;2022-10-13T04:18:13;101813.00;;;9.88;98.14
12213;BME280;6169;44.158;22.788;2022-10-13T04:23:15;101803.00;;;9.88;98.53
12213;BME280;6169;44.158;22.788;2022-10-13T04:28:17;101805.50;;;9.90;97.86
12213;BME280;6169;44.158;22.788;2022-10-13T04:33:21;101796.72;;;9.88;97.25
12213;BME280;6169;44.158;22.788;2022-10-13T04:38:23;101791.38;;;10.01;96.00
12213;BME280;6169;44.158;22.788;2022-10-13T04:43:25;101797.75;;;10.22;95.63
12213;BME280;6169;44.158;22.788;2022-10-13T04:48:30;101805.69;;;10.23;95.46
12213;BME280;6169;44.158;22.788;2022-10-13T04:53:32;101807.34;;;10.18;98.28
12213;BME280;6169;44.158;22.788;2022-10-13T04:58:35;101810.47;;;10.15;97.56
12213;BME280;6169;44.158;22.788;2022-10-13T05:03:39;101805.38;;;10.40;96.11
12213;BME280;6169;44.158;22.788;2022-10-13T05:08:42;101820.66;;;10.47;95.08
12213;BME280;6169;44.158;22.788;2022-10-13T05:13:44;101822.22;;;10.70;93.77
12213;BME280;6169;44.158;22.788;2022-10-13T05:18:48;101823.84;;;10.57;94.43
12213;BME280;6169;44.158;22.788;2022-10-13T05:23:52;101819.47;;;10.56;95.49
12213;BME280;6169;44.158;22.788;2022-10-13T05:28:55;101820.53;;;10.62;97.25
12213;BME280;6169;44.158;22.788;2022-10-13T05:33:59;101834.22;;;11.09;96.55
12213;BME280;6169;44.158;22.788;2022-10-13T05:39:04;101845.34;;;11.27;97.49
12213;BME280;6169;44.158;22.788;2022-10-13T05:44:08;101841.19;;;11.44;98.71
12213;BME280;6169;44.158;22.788;2022-10-13T05:49:11;101852.25;;;11.56;98.23
12213;BME280;6169;44.158;22.788;2022-10-13T05:54:16;101807.09;;;11.42;96.91
12213;BME280;6169;44.158;22.788;2022-10-13T05:59:21;101855.59;;;11.65;99.46
12213;BME280;6169;44.158;22.788;2022-10-13T06:04:31;101869.03;;;11.86;100.00
12213;BME280;6169;44.158;22.788;2022-10-13T06:09:35;101872.19;;;11.83;100.00
12213;BME280;6169;44.158;22.788;2022-10-13T06:14:38;101875.28;;;11.94;100.00
12213;BME280;6169;44.158;22.788;2022-10-13T06:19:42;101881.78;;;12.06;100.00
12213;BME280;6169;44.158;22.788;2022-10-13T06:24:44;101885.53;;;12.05;100.00
12213;BME280;6169;44.158;22.788;2022-10-13T06:29:47;101886.19;;;12.00;100.00
12213;BME280;6169;44.158;22.788;2022-10-13T06:34:50;101880.47;;;12.42;100.00
12213;BME280;6169;44.158;22.788;2022-10-13T06:39:52;101882.00;;;12.83;100.00
12213;BME280;6169;44.158;22.788;2022-10-13T06:44:55;101877.00;;;12.66;100.00
12213;BME280;6169;44.158;22.788;2022-10-13T06:49:58;101888.19;;;13.03;100.00
12213;BME280;6169;44.158;22.788;2022-10-13T06:55:00;101886.91;;;13.12;100.00
12213;BME280;6169;44.158;22.788;2022-10-13T07:00:04;101891.34;;;13.00;100.00
12213;BME280;6169;44.158;22.788;2022-10-13T07:05:08;101895.72;;;13.46;100.00
12213;BME280;6169;44.158;22.788;2022-10-13T07:10:11;101892.81;;;13.34;100.00
12213;BME280;6169;44.158;22.788;2022-10-13T07:15:13;101895.72;;;13.46;100.00
12213;BME280;6169;44.158;22.788;2022-10-13T07:20:17;101895.06;;;13.82;99.40
12213;BME280;6169;44.158;22.788;2022-10-13T07:25:19;101892.88;;;13.91;100.00
12213;BME280;6169;44.158;22.788;2022-10-13T07:30:22;101885.09;;;14.50;98.12
12213;BME280;6169;44.158;22.788;2022-10-13T07:35:25;101875.88;;;14.51;95.40
12213;BME280;6169;44.158;22.788;2022-10-13T07:40:27;101877.53;;;14.70;95.44
12213;BME280;6169;44.158;22.788;2022-10-13T07:45:30;101874.75;;;15.07;92.92
12213;BME280;6169;44.158;22.788;2022-10-13T07:50:34;101859.97;;;15.26;90.43
12213;BME280;6169;44.158;22.788;2022-10-13T07:55:37;101867.28;;;15.56;90.11
12213;BME280;6169;44.158;22.788;2022-10-13T08:00:39;101874.75;;;15.37;87.89
12213;BME280;6169;44.158;22.788;2022-10-13T08:05:43;101867.91;;;15.28;88.09
12213;BME280;6169;44.158;22.788;2022-10-13T08:10:45;101856.94;;;14.86;83.79
12213;BME280;6169;44.158;22.788;2022-10-13T08:15:47;101869.66;;;15.53;82.64
12213;BME280;6169;44.158;22.788;2022-10-13T08:20:51;101864.34;;;15.27;80.63
12213;BME280;6169;44.158;22.788;2022-10-13T08:25:53;101864.06;;;15.17;80.98
12213;BME280;6169;44.158;22.788;2022-10-13T08:30:55;101861.75;;;15.86;78.42
12213;BME280;6169;44.158;22.788;2022-10-13T08:35:59;101870.78;;;15.99;77.15
12213;BME280;6169;44.158;22.788;2022-10-13T08:41:12;101876.66;;;16.02;77.41
12213;BME280;6169;44.158;22.788;2022-10-13T08:46:18;101878.63;;;16.42;74.89
12213;BME280;6169;44.158;22.788;2022-10-13T08:51:24;101867.97;;;16.69;74.48
12213;BME280;6169;44.158;22.788;2022-10-13T08:56:28;101862.91;;;16.61;73.98
12213;BME280;6169;44.158;22.788;2022-10-13T09:01:33;101862.41;;;16.93;75.52
12213;BME280;6169;44.158;22.788;2022-10-13T09:06:40;101865.81;;;16.71;76.10
12213;BME280;6169;44.158;22.788;2022-10-13T09:11:45;101865.59;;;16.73;75.53
12213;BME280;6169;44.158;22.788;2022-10-13T09:16:48;101863.03;;;16.83;77.18
12213;BME280;6169;44.158;22.788;2022-10-13T09:21:53;101852.41;;;17.15;76.47
12213;BME280;6169;44.158;22.788;2022-10-13T09:27:10;101853.75;;;16.84;75.96
12213;BME280;6169;44.158;22.788;2022-10-13T09:32:16;101853.56;;;17.19;75.20
12213;BME280;6169;44.158;22.788;2022-10-13T09:37:22;101723.50;;;16.41;75.75
12213;BME280;6169;44.158;22.788;2022-10-13T09:42:26;101844.78;;;16.48;77.02
12213;BME280;6169;44.158;22.788;2022-10-13T09:47:29;101837.69;;;17.04;76.90
12213;BME280;6169;44.158;22.788;2022-10-13T09:52:34;101837.84;;;16.98;77.98
12213;BME280;6169;44.158;22.788;2022-10-13T09:57:41;101842.16;;;17.56;75.75
12213;BME280;6169;44.158;22.788;2022-10-13T10:02:51;101849.31;;;17.74;74.96
12213;BME280;6169;44.158;22.788;2022-10-13T10:08:05;101832.25;;;17.72;73.30
12213;BME280;6169;44.158;22.788;2022-10-13T10:13:09;101825.88;;;17.49;74.84
12213;BME280;6169;44.158;22.788;2022-10-13T10:18:16;101813.25;;;17.20;77.33
12213;BME280;6169;44.158;22.788;2022-10-13T10:23:31;101812.03;;;17.78;74.85
12213;BME280;6169;44.158;22.788;2022-10-13T10:28:45;101818.63;;;17.77;72.77
12213;BME280;6169;44.158;22.788;2022-10-13T10:34:00;101806.13;;;17.36;76.54
12213;BME280;6169;44.158;22.788;2022-10-13T10:39:17;101798.66;;;17.65;75.50
12213;BME280;6169;44.158;22.788;2022-10-13T10:44:25;101788.38;;;17.94;74.68
12213;BME280;6169;44.158;22.788;2022-10-13T10:49:31;101785.72;;;17.99;72.92
12213;BME280;6169;44.158;22.788;2022-10-13T10:54:42;101783.31;;;18.25;71.45
12213;BME280;6169;44.158;22.788;2022-10-13T10:59:55;101780.03;;;18.77;71.98
12213;BME280;6169;44.158;22.788;2022-10-13T11:05:00;101755.56;;;18.75;69.86
12213;BME280;6169;44.158;22.788;2022-10-13T11:10:21;101751.84;;;18.92;67.67
12213;BME280;6169;44.158;22.788;2022-10-13T11:15:24;101748.94;;;18.49;64.60
12213;BME280;6169;44.158;22.788;2022-10-13T11:20:47;101759.63;;;18.68;63.78
12213;BME280;6169;44.158;22.788;2022-10-13T11:25:51;101751.09;;;18.96;58.94
12213;BME280;6169;44.158;22.788;2022-10-13T11:31:28;101739.81;;;19.30;57.38
12213;BME280;6169;44.158;22.788;2022-10-13T11:36:54;101733.16;;;19.63;58.40
12213;BME280;6169;44.158;22.788;2022-10-13T11:42:08;101718.22;;;20.02;57.08
12213;BME280;6169;44.158;22.788;2022-10-13T11:47:20;101710.50;;;19.99;56.47
12213;BME280;6169;44.158;22.788;2022-10-13T11:52:46;101706.78;;;20.30;56.75
12213;BME280;6169;44.158;22.788;2022-10-13T11:58:06;101701.75;;;20.17;55.94
12213;BME280;6169;44.158;22.788;2022-10-13T12:03:19;101699.63;;;20.39;56.45
12213;BME280;6169;44.158;22.788;2022-10-13T12:08:22;101706.13;;;19.55;55.59
12213;BME280;6169;44.158;22.788;2022-10-13T12:13:28;101703.31;;;19.40;56.71
12213;BME280;6169;44.158;22.788;2022-10-13T12:18:32;101695.31;;;19.96;54.68
12213;BME280;6169;44.158;22.788;2022-10-13T12:23:35;101689.94;;;20.22;52.67
12213;BME280;6169;44.158;22.788;2022-10-13T12:28:49;101682.03;;;20.61;52.21
12213;BME280;6169;44.158;22.788;2022-10-13T12:33:52;101676.78;;;20.80;53.08
12213;BME280;6169;44.158;22.788;2022-10-13T12:38:58;101668.25;;;20.81;51.29
12213;BME280;6169;44.158;22.788;2022-10-13T12:44:03;101665.69;;;20.39;51.95
12213;BME280;6169;44.158;22.788;2022-10-13T12:49:06;101662.59;;;20.10;52.75
12213;BME280;6169;44.158;22.788;2022-10-13T12:54:18;101658.53;;;19.60;53.57
12213;BME280;6169;44.158;22.788;2022-10-13T12:59:24;101654.44;;;20.66;52.94
12213;BME280;6169;44.158;22.788;2022-10-13T13:04:39;101651.34;;;20.32;51.91
12213;BME280;6169;44.158;22.788;2022-10-13T13:09:41;101640.38;;;20.57;51.76
12213;BME280;6169;44.158;22.788;2022-10-13T13:14:46;101634.00;;;20.47;51.91
12213;BME280;6169;44.158;22.788;2022-10-13T13:19:50;101627.66;;;20.46;51.94
12213;BME280;6169;44.158;22.788;2022-10-13T13:24:53;101617.97;;;20.23;53.85
12213;BME280;6169;44.158;22.788;2022-10-13T13:29:57;101628.25;;;20.89;51.55
12213;BME280;6169;44.158;22.788;2022-10-13T13:34:59;101621.53;;;21.36;50.48
12213;BME280;6169;44.158;22.788;2022-10-13T13:40:01;101612.66;;;21.49;50.25
12213;BME280;6169;44.158;22.788;2022-10-13T13:45:06;101618.53;;;21.22;50.22
12213;BME280;6169;44.158;22.788;2022-10-13T13:50:12;101616.59;;;21.08;51.05
12213;BME280;6169;44.158;22.788;2022-10-13T13:55:17;101617.47;;;20.98;51.24
12213;BME280;6169;44.158;22.788;2022-10-13T14:00:21;101616.66;;;20.56;50.33
12213;BME280;6169;44.158;22.788;2022-10-13T14:05:24;101614.69;;;20.31;51.64
12213;BME280;6169;44.158;22.788;2022-10-13T14:10:26;101616.47;;;19.75;53.73
12213;BME280;6169;44.158;22.788;2022-10-13T14:15:30;101619.19;;;19.17;57.06
12213;BME280;6169;44.158;22.788;2022-10-13T14:20:32;101620.75;;;19.02;58.41
12213;BME280;6169;44.158;22.788;2022-10-13T14:25:37;101620.09;;;18.90;59.32
12213;BME280;6169;44.158;22.788;2022-10-13T14:30:40;101615.66;;;18.84;60.21
12213;BME280;6169;44.158;22.788;2022-10-13T14:35:43;101614.44;;;18.75;60.82
12213;BME280;6169;44.158;22.788;2022-10-13T14:40:45;101609.03;;;18.85;61.03
12213;BME280;6169;44.158;22.788;2022-10-13T14:45:48;101605.88;;;18.66;62.49
12213;BME280;6169;44.158;22.788;2022-10-13T14:50:50;101607.72;;;18.55;63.86
12213;BME280;6169;44.158;22.788;2022-10-13T14:55:53;101607.19;;;18.58;63.68
12213;BME280;6169;44.158;22.788;2022-10-13T15:00:56;101602.38;;;18.44;65.09
12213;BME280;6169;44.158;22.788;2022-10-13T15:05:58;101609.16;;;18.31;66.35
12213;BME280;6169;44.158;22.788;2022-10-13T15:11:02;101600.22;;;18.19;66.44
12213;BME280;6169;44.158;22.788;2022-10-13T15:16:07;101604.56;;;18.14;68.60
12213;BME280;6169;44.158;22.788;2022-10-13T15:21:09;101597.59;;;18.07;69.05
12213;BME280;6169;44.158;22.788;2022-10-13T15:26:14;101562.34;;;17.71;67.73
12213;BME280;6169;44.158;22.788;2022-10-13T15:31:19;101596.34;;;17.92;71.51
12213;BME280;6169;44.158;22.788;2022-10-13T15:36:22;101592.28;;;17.51;74.26
12213;BME280;6169;44.158;22.788;2022-10-13T15:41:25;101596.28;;;17.21;75.55
12213;BME280;6169;44.158;22.788;2022-10-13T15:46:29;101596.31;;;17.04;76.57
12213;BME280;6169;44.158;22.788;2022-10-13T15:51:31;101596.09;;;16.72;78.97
12213;BME280;6169;44.158;22.788;2022-10-13T15:56:33;101597.03;;;16.61;79.44
12213;BME280;6169;44.158;22.788;2022-10-13T16:01:37;101600.28;;;16.46;80.17
12213;BME280;6169;44.158;22.788;2022-10-13T16:06:39;101597.81;;;16.45;79.78
12213;BME280;6169;44.158;22.788;2022-10-13T16:11:41;101588.31;;;16.35;80.82
12213;BME280;6169;44.158;22.788;2022-10-13T16:16:45;101588.88;;;16.21;80.80
12213;BME280;6169;44.158;22.788;2022-10-13T16:21:47;101581.81;;;16.08;82.12
12213;BME280;6169;44.158;22.788;2022-10-13T16:26:49;101590.22;;;15.89;83.11
12213;BME280;6169;44.158;22.788;2022-10-13T16:31:53;101580.53;;;15.70;84.73
12213;BME280;6169;44.158;22.788;2022-10-13T16:36:55;101576.16;;;15.69;84.39
12213;BME280;6169;44.158;22.788;2022-10-13T16:41:57;101582.78;;;15.61;85.14
12213;BME280;6169;44.158;22.788;2022-10-13T16:47:01;101586.16;;;15.52;84.92
12213;BME280;6169;44.158;22.788;2022-10-13T16:52:06;101587.38;;;15.32;85.86
12213;BME280;6169;44.158;22.788;2022-10-13T16:57:08;101591.66;;;15.28;86.75
12213;BME280;6169;44.158;22.788;2022-10-13T17:02:13;101591.31;;;14.89;88.74
12213;BME280;6169;44.158;22.788;2022-10-13T17:07:15;101588.81;;;15.11;87.16
12213;BME280;6169;44.158;22.788;2022-10-13T17:12:17;101586.25;;;14.81;87.39
12213;BME280;6169;44.158;22.788;2022-10-13T17:17:21;101585.69;;;14.72;89.09
12213;BME280;6169;44.158;22.788;2022-10-13T17:22:23;101583.22;;;14.71;86.95
12213;BME280;6169;44.158;22.788;2022-10-13T17:27:25;101599.34;;;14.49;84.65
12213;BME280;6169;44.158;22.788;2022-10-13T17:32:29;101598.78;;;14.58;83.37
12213;BME280;6169;44.158;22.788;2022-10-13T17:37:31;101604.59;;;14.62;82.98
12213;BME280;6169;44.158;22.788;2022-10-13T17:42:33;101601.81;;;14.38;84.17
12213;BME280;6169;44.158;22.788;2022-10-13T17:47:37;101604.59;;;14.50;82.78
12213;BME280;6169;44.158;22.788;2022-10-13T17:52:39;101603.53;;;14.63;82.91
12213;BME280;6169;44.158;22.788;2022-10-13T17:57:42;101597.19;;;14.39;84.17
12213;BME280;6169;44.158;22.788;2022-10-13T18:02:45;101445.47;;;13.47;83.48
12213;BME280;6169;44.158;22.788;2022-10-13T18:07:47;101611.41;;;14.29;84.23
12213;BME280;6169;44.158;22.788;2022-10-13T18:12:49;101604.59;;;14.08;85.53
12213;BME280;6169;44.158;22.788;2022-10-13T18:17:53;101613.31;;;14.29;83.75
12213;BME280;6169;44.158;22.788;2022-10-13T18:22:55;101624.09;;;13.94;85.90
12213;BME280;6169;44.158;22.788;2022-10-13T18:27:58;101625.41;;;13.91;85.59
12213;BME280;6169;44.158;22.788;2022-10-13T18:33:02;101617.47;;;14.01;85.76
12213;BME280;6169;44.158;22.788;2022-10-13T18:38:04;101619.88;;;14.09;85.88
12213;BME280;6169;44.158;22.788;2022-10-13T18:43:06;101622.75;;;14.14;85.90
12213;BME280;6169;44.158;22.788;2022-10-13T18:48:10;101622.63;;;14.09;86.98
12213;BME280;6169;44.158;22.788;2022-10-13T18:53:12;101619.50;;;14.36;85.97
12213;BME280;6169;44.158;22.788;2022-10-13T18:58:14;101626.44;;;14.50;85.97
12213;BME280;6169;44.158;22.788;2022-10-13T19:03:18;101627.25;;;14.51;85.91
12213;BME280;6169;44.158;22.788;2022-10-13T19:08:20;101619.97;;;14.75;85.10
12213;BME280;6169;44.158;22.788;2022-10-13T19:13:23;101623.47;;;14.64;85.84
12213;BME280;6169;44.158;22.788;2022-10-13T19:18:27;101631.19;;;14.67;86.15
12213;BME280;6169;44.158;22.788;2022-10-13T19:23:29;101619.78;;;14.58;86.65
12213;BME280;6169;44.158;22.788;2022-10-13T19:28:32;101613.63;;;14.63;86.42
12213;BME280;6169;44.158;22.788;2022-10-13T19:33:35;101623.78;;;14.74;86.03
12213;BME280;6169;44.158;22.788;2022-10-13T19:38:38;101623.59;;;14.57;86.81
12213;BME280;6169;44.158;22.788;2022-10-13T19:43:40;101630.69;;;14.46;89.34
12213;BME280;6169;44.158;22.788;2022-10-13T19:48:44;101619.16;;;14.44;87.51
12213;BME280;6169;44.158;22.788;2022-10-13T19:53:46;101617.84;;;14.35;89.14
12213;BME280;6169;44.158;22.788;2022-10-13T19:58:48;101630.44;;;14.36;88.77
12213;BME280;6169;44.158;22.788;2022-10-13T20:03:53;101604.31;;;14.40;87.98
12213;BME280;6169;44.158;22.788;2022-10-13T20:08:57;101620.47;;;14.42;88.51
12213;BME280;6169;44.158;22.788;2022-10-13T20:13:59;101614.06;;;14.36;88.23
12213;BME280;6169;44.158;22.788;2022-10-13T20:19:03;101624.13;;;14.35;87.73
12213;BME280;6169;44.158;22.788;2022-10-13T20:24:05;101614.75;;;14.01;90.60
12213;BME280;6169;44.158;22.788;2022-10-13T20:29:08;101623.91;;;14.07;91.47
12213;BME280;6169;44.158;22.788;2022-10-13T20:34:15;101626.13;;;13.98;91.86
12213;BME280;6169;44.158;22.788;2022-10-13T20:39:29;101622.19;;;13.76;93.30
12213;BME280;6169;44.158;22.788;2022-10-13T20:44:37;101618.19;;;13.97;91.14
12213;BME280;6169;44.158;22.788;2022-10-13T20:49:42;101620.75;;;13.73;93.13
12213;BME280;6169;44.158;22.788;2022-10-13T20:54:47;101620.38;;;13.69;92.78
12213;BME280;6169;44.158;22.788;2022-10-13T20:59:55;101613.69;;;14.02;90.95
12213;BME280;6169;44.158;22.788;2022-10-13T21:05:00;101610.13;;;14.02;89.64
12213;BME280;6169;44.158;22.788;2022-10-13T21:10:05;101608.03;;;13.85;90.61
12213;BME280;6169;44.158;22.788;2022-10-13T21:15:10;101605.25;;;14.04;89.42
12213;BME280;6169;44.158;22.788;2022-10-13T21:20:16;101604.22;;;13.68;91.51
12213;BME280;6169;44.158;22.788;2022-10-13T21:25:21;101586.50;;;13.59;91.58
12213;BME280;6169;44.158;22.788;2022-10-13T21:30:25;101589.25;;;13.40;92.91
12213;BME280;6169;44.158;22.788;2022-10-13T21:35:31;101591.59;;;13.37;93.21
12213;BME280;6169;44.158;22.788;2022-10-13T21:40:37;101585.41;;;13.30;93.37
12213;BME280;6169;44.158;22.788;2022-10-13T21:45:41;101595.47;;;13.29;93.99
12213;BME280;6169;44.158;22.788;2022-10-13T21:50:47;101580.13;;;13.65;92.48
12213;BME280;6169;44.158;22.788;2022-10-13T21:55:51;101584.38;;;13.79;91.11
12213;BME280;6169;44.158;22.788;2022-10-13T22:01:04;101539.78;;;13.37;92.15
12213;BME280;6169;44.158;22.788;2022-10-13T22:06:12;101579.03;;;14.03;90.19
12213;BME280;6169;44.158;22.788;2022-10-13T22:11:18;101583.56;;;13.79;91.46
12213;BME280;6169;44.158;22.788;2022-10-13T22:16:28;101586.72;;;13.94;90.63
12213;BME280;6169;44.158;22.788;2022-10-13T22:21:37;101556.69;;;13.76;91.25
12213;BME280;6169;44.158;22.788;2022-10-13T22:26:42;101510.72;;;13.31;92.74
12213;BME280;6169;44.158;22.788;2022-10-13T22:31:53;101574.38;;;13.91;90.58
12213;BME280;6169;44.158;22.788;2022-10-13T22:37:00;101568.78;;;13.86;91.48
12213;BME280;6169;44.158;22.788;2022-10-13T22:42:07;101575.16;;;13.80;90.92
12213;BME280;6169;44.158;22.788;2022-10-13T22:47:12;101568.81;;;13.98;89.52
12213;BME280;6169;44.158;22.788;2022-10-13T22:52:20;101567.81;;;13.44;92.13
12213;BME280;6169;44.158;22.788;2022-10-13T22:57:24;101565.25;;;13.49;91.33
12213;BME280;6169;44.158;22.788;2022-10-13T23:02:28;101560.16;;;13.34;92.14
12213;BME280;6169;44.158;22.788;2022-10-13T23:07:34;101556.00;;;13.13;91.98
12213;BME280;6169;44.158;22.788;2022-10-13T23:12:38;101560.69;;;13.06;92.03
12213;BME280;6169;44.158;22.788;2022-10-13T23:17:42;101550.31;;;12.96;91.64
12213;BME280;6169;44.158;22.788;2022-10-13T23:22:48;101550.88;;;12.80;93.13
12213;BME280;6169;44.158;22.788;2022-10-13T23:27:52;101551.84;;;12.67;93.70
12213;BME280;6169;44.158;22.788;2022-10-13T23:32:56;101560.44;;;12.64;92.71
12213;BME280;6169;44.158;22.788;2022-10-13T23:38:01;101562.72;;;12.42;92.88
12213;BME280;6169;44.158;22.788;2022-10-13T23:43:05;101552.72;;;12.36;93.33
12213;BME280;6169;44.158;22.788;2022-10-13T23:48:09;101558.72;;;12.45;92.05
12213;BME280;6169;44.158;22.788;2022-10-13T23:53:15;101551.31;;;12.27;92.37
12213;BME280;6169;44.158;22.788;2022-10-13T23:58:19;101561.72;;;12.05;91.75
